createdAt,value
2023-05-21T00:00:00.269Z,4.03
2023-05-21T00:02:31.215Z,4.87
2023-05-21T00:05:02.064Z,5.37
2023-05-21T00:07:32.204Z,5.00
2023-05-21T00:10:01.227Z,4.57
2023-05-21T00:12:29.789Z,4.30
2023-05-21T00:14:59.016Z,3.90
2023-05-21T00:17:27.737Z,5.07
2023-05-21T00:19:58.208Z,5.00
2023-05-21T00:22:26.453Z,4.40
2023-05-21T00:24:54.892Z,5.00
2023-05-21T00:27:25.378Z,4.70
2023-05-21T00:29:53.329Z,4.87
2023-05-21T00:32:21.561Z,5.77
2023-05-21T00:34:50.356Z,4.57
2023-05-21T00:37:19.514Z,4.23
2023-05-21T00:39:49.714Z,4.77
2023-05-21T00:42:20.644Z,4.70
2023-05-21T00:44:49.009Z,5.37
2023-05-21T00:47:18.623Z,4.80
2023-05-21T00:49:47.717Z,4.37
2023-05-21T00:52:20.712Z,4.67
2023-05-21T00:54:52.579Z,4.57
2023-05-21T00:57:21.485Z,5.13
2023-05-21T00:59:54.421Z,4.40
2023-05-21T01:02:24.634Z,4.67
2023-05-21T01:04:56.563Z,4.73
2023-05-21T01:07:25.320Z,4.67
2023-05-21T01:09:54.572Z,5.27
2023-05-21T01:12:25.226Z,4.33
2023-05-21T01:14:54.585Z,4.53
2023-05-21T01:17:25.779Z,5.17
2023-05-21T01:19:55.207Z,4.27
2023-05-21T01:22:25.362Z,4.63
2023-05-21T01:24:55.867Z,4.27
2023-05-21T01:27:25.212Z,4.67
2023-05-21T01:29:53.637Z,5.03
2023-05-21T01:32:57.473Z,4.90
2023-05-21T01:35:50.142Z,5.07
2023-05-21T01:38:30.090Z,4.30
2023-05-21T01:41:18.516Z,4.40
2023-05-21T01:43:48.753Z,4.53
2023-05-21T01:46:25.063Z,4.80
2023-05-21T01:48:57.001Z,5.53
2023-05-21T01:51:28.585Z,3.63
2023-05-21T01:53:56.793Z,5.00
2023-05-21T01:56:26.750Z,4.30
2023-05-21T01:59:00.128Z,5.20
2023-05-21T02:01:31.721Z,4.90
2023-05-21T02:04:00.869Z,4.30
2023-05-21T02:06:29.552Z,5.60
2023-05-21T02:09:02.720Z,4.67
2023-05-21T02:11:31.096Z,4.10
2023-05-21T02:13:59.760Z,4.03
2023-05-21T02:16:29.311Z,4.93
2023-05-21T02:18:58.169Z,4.50
2023-05-21T02:21:27.177Z,4.63
2023-05-21T02:23:58.925Z,5.20
2023-05-21T02:26:27.454Z,4.57
2023-05-21T02:28:56.546Z,4.73
2023-05-21T02:31:24.857Z,4.23
2023-05-21T02:33:54.406Z,5.27
2023-05-21T02:36:22.618Z,4.93
2023-05-21T02:38:50.402Z,5.13
2023-05-21T02:41:20.286Z,4.77
2023-05-21T02:43:48.322Z,4.73
2023-05-21T02:46:17.627Z,5.37
2023-05-21T02:48:46.306Z,4.90
2023-05-21T02:51:14.846Z,4.33
2023-05-21T02:53:43.050Z,4.07
2023-05-21T02:56:10.652Z,4.87
2023-05-21T02:58:41.118Z,5.07
2023-05-21T03:01:09.549Z,4.20
2023-05-21T03:03:38.332Z,4.33
2023-05-21T03:06:10.409Z,4.67
2023-05-21T03:08:39.510Z,5.23
2023-05-21T03:11:08.348Z,4.80
2023-05-21T03:13:37.592Z,4.80
2023-05-21T03:16:06.286Z,4.73
2023-05-21T03:18:34.486Z,5.03
2023-05-21T03:21:02.770Z,5.10
2023-05-21T03:23:31.667Z,5.40
2023-05-21T03:26:01.031Z,4.27
2023-05-21T03:28:30.534Z,5.10
2023-05-21T03:31:02.172Z,4.83
2023-05-21T03:33:32.863Z,4.20
2023-05-21T03:36:02.329Z,5.17
2023-05-21T03:38:31.613Z,4.77
2023-05-21T03:41:00.585Z,4.50
2023-05-21T03:43:31.845Z,4.87
2023-05-21T03:46:01.443Z,4.53
2023-05-21T03:48:30.755Z,4.53
2023-05-21T03:51:01.199Z,5.03
2023-05-21T03:53:29.285Z,5.10
2023-05-21T03:56:08.119Z,5.83
2023-05-21T03:58:50.330Z,5.13
2023-05-21T04:01:19.712Z,4.93
2023-05-21T04:03:49.268Z,4.47
2023-05-21T04:06:20.611Z,4.63
2023-05-21T04:08:54.793Z,4.50
2023-05-21T04:11:28.022Z,4.63
2023-05-21T04:13:57.663Z,4.40
2023-05-21T04:16:28.148Z,4.87
2023-05-21T04:19:01.202Z,4.77
2023-05-21T04:21:29.918Z,5.00
2023-05-21T04:24:03.229Z,4.20
2023-05-21T04:26:36.612Z,4.60
2023-05-21T04:29:05.405Z,4.40
2023-05-21T04:31:38.123Z,4.53
2023-05-21T04:34:07.804Z,5.20
2023-05-21T04:36:41.044Z,4.67
2023-05-21T04:39:15.454Z,5.63
2023-05-21T04:41:49.594Z,4.37
2023-05-21T04:44:19.415Z,4.30
2023-05-21T04:46:49.206Z,5.07
2023-05-21T04:49:17.526Z,4.93
2023-05-21T04:51:47.011Z,4.10
2023-05-21T04:54:32.164Z,4.30
2023-05-21T04:57:04.536Z,3.73
2023-05-21T04:59:32.875Z,3.67
2023-05-21T05:02:05.728Z,4.33
2023-05-21T05:04:35.897Z,4.67
2023-05-21T05:07:05.971Z,3.83
2023-05-21T05:09:38.745Z,3.83
2023-05-21T05:12:12.692Z,4.13
2023-05-21T05:14:42.648Z,3.83
2023-05-21T05:17:15.079Z,4.17
2023-05-21T05:19:44.417Z,4.80
2023-05-21T05:22:13.618Z,3.87
2023-05-21T05:24:42.937Z,3.90
2023-05-21T05:27:13.504Z,3.50
2023-05-21T05:29:42.643Z,3.63
2023-05-21T05:32:11.451Z,3.50
2023-05-21T05:34:39.800Z,4.10
2023-05-21T05:37:07.952Z,3.60
2023-05-21T05:39:36.533Z,3.80
2023-05-21T05:42:06.172Z,4.10
2023-05-21T05:44:35.228Z,4.17
2023-05-21T05:47:02.831Z,3.50
2023-05-21T05:49:31.174Z,3.33
2023-05-21T05:52:00.704Z,3.93
2023-05-21T05:54:28.948Z,3.70
2023-05-21T05:56:57.323Z,3.53
2023-05-21T05:59:28.874Z,3.70
2023-05-21T06:01:56.273Z,3.43
2023-05-21T06:04:27.076Z,3.90
2023-05-21T06:06:58.877Z,4.10
2023-05-21T06:09:26.797Z,3.60
2023-05-21T06:11:57.249Z,3.43
2023-05-21T06:14:29.113Z,3.60
2023-05-21T06:17:00.272Z,3.87
2023-05-21T06:19:31.549Z,4.07
2023-05-21T06:22:02.433Z,3.57
2023-05-21T06:24:32.837Z,3.93
2023-05-21T06:27:02.959Z,3.77
2023-05-21T06:29:32.103Z,3.37
2023-05-21T06:32:06.581Z,3.67
2023-05-21T06:34:34.778Z,3.93
2023-05-21T06:37:02.452Z,3.60
2023-05-21T06:39:31.390Z,3.13
2023-05-21T06:42:11.785Z,3.63
2023-05-21T06:44:49.625Z,3.33
2023-05-21T06:47:19.173Z,3.80
2023-05-21T06:49:51.443Z,3.90
2023-05-21T06:52:22.677Z,3.40
2023-05-21T06:54:50.695Z,3.10
2023-05-21T06:57:18.432Z,3.53
2023-05-21T06:59:46.716Z,3.50
2023-05-21T07:02:15.497Z,3.40
2023-05-21T07:04:43.805Z,4.23
2023-05-21T07:07:11.754Z,5.57
2023-05-21T07:09:40.143Z,3.80
2023-05-21T07:12:08.945Z,3.33
2023-05-21T07:14:36.683Z,4.07
2023-05-21T07:17:05.080Z,3.60
2023-05-21T07:19:34.751Z,3.30
2023-05-21T07:22:03.087Z,3.30
2023-05-21T07:24:30.982Z,3.57
2023-05-21T07:26:59.185Z,3.77
2023-05-21T07:29:27.187Z,3.53
2023-05-21T07:31:55.942Z,3.43
2023-05-21T07:34:25.731Z,3.43
2023-05-21T07:36:54.358Z,3.50
2023-05-21T07:39:22.709Z,3.27
2023-05-21T07:41:52.745Z,3.23
2023-05-21T07:44:21.315Z,3.13
2023-05-21T07:46:50.999Z,3.37
2023-05-21T07:49:20.483Z,3.33
2023-05-21T07:51:49.051Z,3.60
2023-05-21T07:54:18.897Z,3.63
2023-05-21T07:56:49.037Z,3.30
2023-05-21T07:59:18.007Z,3.40
2023-05-21T08:01:46.747Z,3.10
2023-05-21T08:04:15.939Z,3.33
2023-05-21T08:06:51.860Z,3.47
2023-05-21T08:09:25.832Z,3.37
2023-05-21T08:12:00.237Z,3.60
2023-05-21T08:14:48.257Z,3.87
2023-05-21T08:17:19.923Z,3.57
2023-05-21T08:19:47.876Z,3.47
2023-05-21T08:22:27.666Z,2.97
2023-05-21T08:25:29.872Z,4.23
2023-05-21T08:28:10.482Z,3.27
2023-05-21T08:30:47.712Z,3.63
2023-05-21T08:33:21.664Z,3.50
2023-05-21T08:35:58.134Z,6.90
2023-05-21T08:38:53.523Z,2.63
2023-05-21T08:41:25.698Z,3.20
2023-05-21T08:44:00.130Z,3.30
2023-05-21T08:46:34.854Z,3.30
2023-05-21T08:49:04.878Z,3.30
2023-05-21T08:51:32.773Z,3.40
2023-05-21T08:54:03.147Z,3.07
2023-05-21T08:56:37.899Z,3.50
2023-05-21T08:59:05.919Z,2.90
2023-05-21T09:01:34.986Z,3.27
2023-05-21T09:04:19.576Z,3.03
2023-05-21T09:06:52.491Z,3.53
2023-05-21T09:09:34.762Z,3.03
2023-05-21T09:12:02.938Z,3.17
2023-05-21T09:14:34.408Z,3.67
2023-05-21T09:17:03.648Z,2.97
2023-05-21T09:19:35.399Z,3.43
2023-05-21T09:22:05.856Z,3.07
2023-05-21T09:24:36.419Z,3.20
2023-05-21T09:27:10.611Z,3.33
2023-05-21T09:29:39.265Z,3.30
2023-05-21T09:32:14.860Z,3.07
2023-05-21T09:34:43.540Z,3.53
2023-05-21T09:37:27.035Z,3.10
2023-05-21T09:39:55.585Z,3.40
2023-05-21T09:42:24.221Z,3.50
2023-05-21T09:44:54.240Z,3.20
2023-05-21T09:47:22.376Z,3.40
2023-05-21T09:49:50.661Z,3.20
2023-05-21T09:52:28.527Z,2.87
2023-05-21T09:55:11.050Z,3.30
2023-05-21T09:57:49.106Z,3.43
2023-05-21T10:00:20.397Z,3.33
2023-05-21T10:02:52.920Z,2.90
2023-05-21T10:05:25.301Z,3.53
2023-05-21T10:08:04.432Z,3.23
2023-05-21T10:10:33.867Z,3.43
2023-05-21T10:13:13.724Z,3.40
2023-05-21T10:15:52.034Z,3.43
2023-05-21T10:18:22.727Z,3.43
2023-05-21T10:20:52.127Z,3.30
2023-05-21T10:23:21.749Z,3.10
2023-05-21T10:25:54.411Z,3.20
2023-05-21T10:28:24.480Z,3.53
2023-05-21T10:30:54.364Z,3.20
2023-05-21T10:33:26.267Z,3.67
2023-05-21T10:35:59.228Z,3.57
2023-05-21T10:38:28.252Z,3.00
2023-05-21T10:40:57.381Z,3.40
2023-05-21T10:44:00.986Z,3.80
2023-05-21T10:47:04.488Z,3.60
2023-05-21T10:49:49.963Z,3.60
2023-05-21T10:53:22.184Z,3.17
2023-05-21T10:56:10.788Z,3.60
2023-05-21T10:59:08.303Z,3.10
2023-05-21T11:01:41.096Z,3.30
2023-05-21T11:04:09.593Z,3.43
2023-05-21T11:06:38.791Z,3.23
2023-05-21T11:09:15.565Z,3.53
2023-05-21T11:11:59.440Z,3.40
2023-05-21T11:14:59.100Z,3.30
2023-05-21T11:17:57.114Z,4.13
2023-05-21T11:20:37.435Z,3.70
2023-05-21T11:23:06.805Z,4.07
2023-05-21T11:25:38.921Z,3.90
2023-05-21T11:28:12.577Z,3.40
2023-05-21T11:30:42.100Z,3.83
2023-05-21T11:33:10.981Z,3.63
2023-05-21T11:35:53.210Z,3.73
2023-05-21T11:38:23.595Z,4.30
2023-05-21T11:40:55.845Z,3.67
2023-05-21T11:43:26.090Z,3.53
2023-05-21T11:46:01.032Z,3.13
2023-05-21T11:48:34.971Z,2.83
2023-05-21T11:51:05.955Z,2.63
2023-05-21T11:53:34.937Z,2.47
2023-05-21T11:56:06.031Z,2.90
2023-05-21T11:58:34.573Z,2.80
2023-05-21T12:01:03.282Z,2.60
2023-05-21T12:03:35.751Z,2.57
2023-05-21T12:06:08.722Z,2.30
2023-05-21T12:08:38.549Z,2.23
2023-05-21T12:11:08.303Z,2.50
2023-05-21T12:13:37.261Z,2.23
2023-05-21T12:16:10.181Z,2.27
2023-05-21T12:18:39.822Z,2.13
2023-05-21T12:21:12.358Z,1.93
2023-05-21T12:23:43.651Z,1.90
2023-05-21T12:26:12.677Z,1.67
2023-05-21T12:28:40.839Z,2.90
2023-05-21T12:31:16.565Z,2.63
2023-05-21T12:33:52.528Z,2.70
2023-05-21T12:36:34.711Z,2.77
2023-05-21T12:39:04.769Z,3.27
2023-05-21T12:41:33.732Z,2.80
2023-05-21T12:44:05.852Z,3.10
2023-05-21T12:46:38.350Z,3.00
2023-05-21T12:49:07.639Z,2.83
2023-05-21T12:51:40.802Z,3.00
2023-05-21T12:54:15.772Z,2.70
2023-05-21T12:56:47.487Z,2.87
2023-05-21T12:59:16.458Z,2.73
2023-05-21T13:01:49.202Z,2.67
2023-05-21T13:04:21.556Z,2.70
2023-05-21T13:06:50.935Z,2.83
2023-05-21T13:09:21.419Z,2.87
2023-05-21T13:11:50.644Z,2.80
2023-05-21T13:14:24.784Z,2.80
2023-05-21T13:16:53.934Z,3.30
2023-05-21T13:19:24.493Z,3.23
2023-05-21T13:21:58.584Z,2.33
2023-05-21T13:24:26.253Z,2.53
2023-05-21T13:26:56.875Z,2.70
2023-05-21T13:29:26.616Z,3.00
2023-05-21T13:31:54.938Z,3.20
2023-05-21T13:34:23.061Z,2.60
2023-05-21T13:36:57.348Z,2.63
2023-05-21T13:39:27.973Z,3.63
2023-05-21T13:41:58.727Z,3.10
2023-05-21T13:44:30.363Z,2.93
2023-05-21T13:46:58.433Z,2.60
2023-05-21T13:49:27.630Z,3.07
2023-05-21T13:51:56.105Z,3.17
2023-05-21T13:54:25.357Z,3.23
2023-05-21T13:56:55.160Z,2.53
2023-05-21T13:59:23.806Z,3.10
2023-05-21T14:01:52.832Z,2.60
2023-05-21T14:04:21.792Z,2.17
2023-05-21T14:06:51.581Z,2.20
2023-05-21T14:09:20.298Z,2.70
2023-05-21T14:11:48.444Z,2.77
2023-05-21T14:14:19.427Z,2.37
2023-05-21T14:16:48.009Z,2.73
2023-05-21T14:19:19.128Z,2.83
2023-05-21T14:21:48.661Z,2.83
2023-05-21T14:24:17.234Z,2.37
2023-05-21T14:26:45.408Z,2.40
2023-05-21T14:29:13.809Z,3.10
2023-05-21T14:31:41.921Z,2.77
2023-05-21T14:34:11.885Z,2.33
2023-05-21T14:36:42.640Z,2.93
2023-05-21T14:39:10.786Z,2.47
2023-05-21T14:41:40.917Z,2.60
2023-05-21T14:46:51.730Z,3.10
2023-05-21T14:49:20.177Z,2.50
2023-05-21T14:51:48.054Z,2.00
2023-05-21T14:54:16.219Z,2.43
2023-05-21T14:56:48.158Z,2.90
2023-05-21T14:59:17.617Z,2.70
2023-05-21T15:01:45.531Z,3.07
2023-05-21T15:04:17.098Z,3.03
2023-05-21T15:06:48.027Z,3.07
2023-05-21T15:09:16.428Z,3.17
2023-05-21T15:11:47.062Z,3.40
2023-05-21T15:14:15.225Z,2.57
2023-05-21T15:16:43.127Z,2.90
2023-05-21T15:19:12.001Z,2.57
2023-05-21T15:21:40.287Z,2.60
2023-05-21T15:24:08.267Z,2.73
2023-05-21T15:26:37.027Z,2.63
2023-05-21T15:29:05.336Z,3.07
2023-05-21T15:31:33.936Z,6.27
2023-05-21T15:34:01.536Z,2.67
2023-05-21T15:36:29.040Z,2.53
2023-05-21T15:38:57.144Z,2.90
2023-05-21T15:41:24.989Z,2.70
2023-05-21T15:43:53.230Z,2.70
2023-05-21T15:46:21.292Z,2.03
2023-05-21T15:48:48.969Z,2.73
2023-05-21T15:51:17.108Z,3.10
2023-05-21T15:53:44.945Z,3.10
2023-05-21T15:56:13.552Z,2.97
2023-05-21T15:58:42.280Z,3.17
2023-05-21T16:01:10.110Z,2.47
2023-05-21T16:03:41.880Z,3.20
2023-05-21T16:06:10.857Z,2.83
2023-05-21T16:08:38.845Z,3.10
2023-05-21T16:11:06.815Z,2.60
2023-05-21T16:13:35.252Z,2.67
2023-05-21T16:16:03.245Z,3.03
2023-05-21T16:18:31.857Z,2.67
2023-05-21T16:20:59.982Z,2.50
2023-05-21T16:23:28.767Z,2.67
2023-05-21T16:25:57.017Z,3.07
2023-05-21T16:30:58.828Z,2.37
2023-05-21T16:33:26.609Z,2.83
2023-05-21T16:36:10.656Z,3.30
2023-05-21T16:38:40.657Z,2.57
2023-05-21T16:41:10.460Z,2.77
2023-05-21T16:43:38.348Z,3.17
2023-05-21T16:46:06.223Z,2.50
2023-05-21T16:48:37.358Z,2.70
2023-05-21T16:51:06.221Z,2.40
2023-05-21T16:53:34.538Z,2.70
2023-05-21T16:56:02.206Z,2.70
2023-05-21T16:58:30.133Z,2.40
2023-05-21T17:00:57.801Z,2.60
2023-05-21T17:03:26.398Z,2.97
2023-05-21T17:05:54.555Z,2.73
2023-05-21T17:08:24.794Z,2.13
2023-05-21T17:10:56.565Z,2.60
2023-05-21T17:13:25.455Z,2.90
2023-05-21T17:15:54.013Z,3.30
2023-05-21T17:18:24.974Z,2.60
2023-05-21T17:20:53.079Z,2.83
2023-05-21T17:23:26.888Z,2.57
2023-05-21T17:25:56.830Z,2.40
2023-05-21T17:28:25.783Z,2.50
2023-05-21T17:30:56.583Z,2.10
2023-05-21T17:33:25.818Z,3.03
2023-05-21T17:35:54.622Z,2.80
2023-05-21T17:38:29.277Z,2.67
2023-05-21T17:40:59.076Z,2.73
2023-05-21T17:44:00.958Z,3.00
2023-05-21T17:46:42.207Z,2.07
2023-05-21T17:50:52.102Z,2.50
2023-05-21T17:52:30.262Z,2.77
2023-05-21T17:55:53.564Z,3.07
2023-05-21T17:58:28.613Z,3.13
2023-05-21T18:04:31.110Z,2.93
2023-05-21T18:07:34.223Z,3.73
2023-05-21T18:10:22.896Z,2.83
2023-05-21T18:12:51.546Z,3.33
2023-05-21T18:15:20.064Z,2.97
2023-05-21T18:17:51.657Z,3.00
2023-05-21T18:20:30.586Z,3.23
2023-05-21T18:23:13.037Z,3.10
2023-05-21T18:25:42.025Z,3.50
2023-05-21T18:28:10.590Z,3.17
2023-05-21T18:30:39.066Z,3.13
2023-05-21T18:33:08.628Z,4.00
2023-05-21T18:35:40.310Z,2.97
2023-05-21T18:38:12.540Z,3.20
2023-05-21T18:40:42.052Z,3.50
2023-05-21T18:43:10.993Z,12.03
2023-05-21T18:45:38.859Z,7.97
2023-05-21T18:48:07.282Z,3.90
2023-05-21T18:50:37.803Z,3.13
2023-05-21T18:53:07.515Z,3.17
2023-05-21T18:55:36.857Z,3.30
2023-05-21T18:58:05.468Z,3.50
2023-05-21T19:00:35.577Z,3.23
2023-05-21T19:03:03.863Z,3.50
2023-05-21T19:05:32.415Z,2.97
2023-05-21T19:08:00.914Z,3.47
2023-05-21T19:10:32.600Z,2.90
2023-05-21T19:13:01.282Z,3.93
2023-05-21T19:15:30.266Z,3.97
2023-05-21T19:17:59.124Z,3.73
2023-05-21T19:20:33.657Z,3.53
2023-05-21T19:23:04.916Z,3.30
2023-05-21T19:25:34.110Z,3.43
2023-05-21T19:28:02.352Z,3.40
2023-05-21T19:30:30.847Z,3.23
2023-05-21T19:33:00.721Z,3.43
2023-05-21T19:35:30.337Z,3.20
2023-05-21T19:38:04.320Z,3.17
2023-05-21T19:40:34.244Z,3.40
2023-05-21T19:43:13.073Z,3.67
2023-05-21T19:45:44.324Z,4.10
2023-05-21T19:48:13.049Z,4.00
2023-05-21T19:50:42.037Z,3.27
2023-05-21T19:53:19.173Z,2.80
2023-05-21T19:55:50.617Z,3.30
2023-05-21T19:58:25.259Z,3.33
2023-05-21T20:00:56.103Z,3.47
2023-05-21T20:03:27.296Z,3.03
2023-05-21T20:05:55.534Z,4.03
2023-05-21T20:08:26.136Z,3.33
2023-05-21T20:10:54.279Z,3.27
2023-05-21T20:13:23.328Z,3.30
2023-05-21T20:15:52.248Z,3.00
2023-05-21T20:18:22.323Z,3.80
2023-05-21T20:20:53.279Z,3.87
2023-05-21T20:23:21.847Z,3.23
2023-05-21T20:25:53.306Z,3.40
2023-05-21T20:28:23.296Z,3.70
2023-05-21T20:31:00.354Z,3.50
2023-05-21T20:33:31.394Z,3.73
2023-05-21T20:36:00.153Z,3.43
2023-05-21T20:38:28.507Z,3.30
2023-05-21T20:41:00.475Z,3.93
2023-05-21T20:43:54.876Z,3.27
2023-05-21T20:46:39.021Z,3.20
2023-05-21T20:49:10.177Z,2.97
2023-05-21T20:51:45.000Z,3.87
2023-05-21T20:54:13.502Z,2.80
2023-05-21T20:56:45.282Z,3.83
2023-05-21T20:59:16.893Z,3.67
2023-05-21T21:01:48.800Z,2.93
2023-05-21T21:04:39.148Z,3.50
2023-05-21T21:07:12.370Z,3.33
2023-05-21T21:09:41.809Z,3.60
2023-05-21T21:12:24.729Z,4.00
2023-05-21T21:14:55.179Z,3.50
2023-05-21T21:17:27.078Z,3.00
2023-05-21T21:19:56.265Z,4.10
2023-05-21T21:22:25.711Z,3.63
2023-05-21T21:24:54.312Z,3.87
2023-05-21T21:27:24.476Z,3.73
2023-05-21T21:29:54.596Z,3.57
2023-05-21T21:32:24.083Z,3.73
2023-05-21T21:34:53.832Z,2.87
2023-05-21T21:37:22.334Z,2.77
2023-05-21T21:39:53.445Z,3.40
2023-05-21T21:42:22.346Z,3.50
2023-05-21T21:44:50.886Z,2.93
2023-05-21T21:47:19.706Z,3.17
2023-05-21T21:49:49.504Z,3.03
2023-05-21T21:52:19.118Z,2.83
2023-05-21T21:54:50.920Z,3.10
2023-05-21T21:57:20.026Z,3.53
2023-05-21T21:59:49.146Z,2.80
2023-05-21T22:02:21.784Z,3.87
2023-05-21T22:04:51.105Z,5.90
2023-05-21T22:07:21.047Z,5.03
2023-05-21T22:09:49.710Z,2.53
2023-05-21T22:12:18.821Z,3.63
2023-05-21T22:14:48.354Z,3.20
2023-05-21T22:17:18.116Z,2.97
2023-05-21T22:19:47.888Z,3.17
2023-05-21T22:22:19.418Z,3.57
2023-05-21T22:24:48.340Z,3.90
2023-05-21T22:27:18.362Z,2.63
2023-05-21T22:29:46.612Z,3.07
2023-05-21T22:32:19.248Z,3.37
2023-05-21T22:34:48.975Z,2.63
2023-05-21T22:37:18.272Z,3.53
2023-05-21T22:39:47.786Z,2.87
2023-05-21T22:42:16.475Z,3.13
2023-05-21T22:44:45.154Z,2.97
2023-05-21T22:47:16.802Z,3.43
2023-05-21T22:49:46.127Z,3.50
2023-05-21T22:52:16.845Z,2.50
2023-05-21T22:54:46.235Z,3.13
2023-05-21T22:57:16.784Z,3.80
2023-05-21T22:59:44.990Z,2.87
2023-05-21T23:02:13.819Z,2.90
2023-05-21T23:04:44.850Z,3.40
2023-05-21T23:07:16.467Z,2.80
2023-05-21T23:09:44.953Z,2.83
2023-05-21T23:12:14.514Z,2.57
2023-05-21T23:14:42.906Z,2.67
2023-05-21T23:17:14.607Z,3.13
2023-05-21T23:19:43.417Z,3.03
2023-05-21T23:22:12.871Z,2.80
2023-05-21T23:24:42.615Z,3.27
2023-05-21T23:27:14.627Z,2.83
2023-05-21T23:29:43.433Z,2.83
2023-05-21T23:32:12.787Z,2.87
2023-05-21T23:34:42.409Z,3.27
2023-05-21T23:37:11.924Z,2.10
2023-05-21T23:39:41.829Z,2.30
2023-05-21T23:42:10.978Z,2.10
2023-05-21T23:44:40.239Z,2.23
2023-05-21T23:47:09.059Z,2.30
2023-05-21T23:49:40.721Z,2.60
2023-05-21T23:52:09.361Z,1.93
2023-05-21T23:54:39.076Z,2.50
2023-05-21T23:57:08.555Z,2.60
2023-05-21T23:59:37.770Z,2.20
